Time;durP1;ratioP1;P1;durP2;ratioP2;P2;SDS_P1;SDS_P2;PMS_P1;PMS_P2;Temp;Humidity;BMP_temperature;BMP_pressure;BME280_temperature;BME280_humidity;BME280_pressure;Samples;Min_cycle;Max_cycle;Signal;HPM_P1;HPM_P2
2022/12/03 00:00:28;;;;;;;30.20;23.00;;;;;;;;;;5050466;28;20059;-67
2022/12/03 00:02:53;;;;;;;34.10;23.40;;;;;;;;;;5051029;28;20087;-66
2022/12/03 00:05:18;;;;;;;32.35;22.88;;;;;;;;;;5047483;28;20033;-66
2022/12/03 00:07:44;;;;;;;34.13;23.67;;;;;;;;;;5041905;28;20383;-66
2022/12/03 00:10:09;;;;;;;30.00;23.17;;;;;;;;;;5035205;28;20010;-66
2022/12/03 00:12:35;;;;;;;33.88;22.58;;;;;;;;;;5030882;28;20126;-66
2022/12/03 00:15:00;;;;;;;30.95;22.80;;;;;;;;;;5032857;28;20036;-66
2022/12/03 00:17:25;;;;;;;30.92;24.45;;;;;;;;;;5044620;28;20060;-66
2022/12/03 00:19:50;;;;;;;36.83;23.52;;;;;;;;;;5064046;28;20021;-66
2022/12/03 00:22:16;;;;;;;30.20;22.95;;;;;;;;;;5064563;28;20025;-66
2022/12/03 00:24:41;;;;;;;29.77;21.38;;;;;;;;;;5052105;28;20466;-66
2022/12/03 00:27:06;;;;;;;30.90;22.92;;;;;;;;;;5039253;28;20026;-67
2022/12/03 00:29:31;;;;;;;32.58;23.05;;;;;;;;;;5031885;28;20017;-66
2022/12/03 00:31:56;;;;;;;31.38;23.48;;;;;;;;;;5031853;28;20044;-66
2022/12/03 00:34:22;;;;;;;30.13;23.90;;;;;;;;;;5037149;28;20020;-66
2022/12/03 00:36:47;;;;;;;31.67;22.52;;;;;;;;;;5051623;28;20023;-66
2022/12/03 00:39:12;;;;;;;26.52;21.45;;;;;;;;;;5050716;28;20053;-66
2022/12/03 00:41:38;;;;;;;38.33;24.08;;;;;;;;;;5051426;28;20383;-66
2022/12/03 00:44:03;;;;;;;35.08;23.73;;;;;;;;;;5033887;28;20087;-66
2022/12/03 00:46:28;;;;;;;32.88;23.50;;;;;;;;;;5032160;28;20029;-66
2022/12/03 00:48:53;;;;;;;36.00;23.95;;;;;;;;;;5032861;28;20025;-66
2022/12/03 00:51:19;;;;;;;35.38;24.33;;;;;;;;;;5035635;28;20014;-66
2022/12/03 00:53:44;;;;;;;36.33;24.55;;;;;;;;;;5044134;28;20028;-66
2022/12/03 00:56:09;;;;;;;33.90;23.45;;;;;;;;;;5053604;28;20092;-66
2022/12/03 00:58:34;;;;;;;37.35;23.55;;;;;;;;;;5051922;28;20021;-66
2022/12/03 01:01:00;;;;;;;32.40;22.95;;;;;;;;;;5053628;28;20049;-66
2022/12/03 01:03:25;;;;;;;31.60;22.85;;;;;;;;;;5063896;28;20031;-66
2022/12/03 01:05:50;;;;;;;31.55;23.85;;;;;;;;;;5054741;28;20025;-66
2022/12/03 01:08:16;;;;;;;32.90;23.83;;;;;;;;;;5051054;28;20424;-66
2022/12/03 01:10:41;;;;;;;31.73;23.67;;;;;;;;;;5060071;28;20020;-66
2022/12/03 01:13:06;;;;;;;29.80;23.77;;;;;;;;;;5057302;28;20024;-67
2022/12/03 01:15:31;;;;;;;36.88;25.92;;;;;;;;;;5028042;28;20028;-66
2022/12/03 01:17:56;;;;;;;34.53;25.13;;;;;;;;;;5048462;28;20096;-66
2022/12/03 01:20:22;;;;;;;35.45;25.05;;;;;;;;;;5043479;28;20101;-66
2022/12/03 01:22:47;;;;;;;35.83;24.80;;;;;;;;;;5038290;28;20024;-66
2022/12/03 01:25:12;;;;;;;32.40;26.25;;;;;;;;;;5035637;28;20120;-66
2022/12/03 01:27:37;;;;;;;35.75;24.75;;;;;;;;;;5036874;28;20012;-66
2022/12/03 01:30:03;;;;;;;34.17;25.38;;;;;;;;;;5035741;28;20064;-66
2022/12/03 01:32:29;;;;;;;33.78;24.45;;;;;;;;;;5039808;28;20074;-66
2022/12/03 01:34:54;;;;;;;33.13;23.88;;;;;;;;;;5034235;28;20014;-66
2022/12/03 01:37:21;;;;;;;36.88;25.85;;;;;;;;;;5034273;28;20017;-66
2022/12/03 01:39:46;;;;;;;36.58;27.33;;;;;;;;;;5034010;28;20029;-66
2022/12/03 01:42:15;;;;;;;40.55;27.63;;;;;;;;;;5042518;28;20071;-66
2022/12/03 01:44:40;;;;;;;37.83;27.95;;;;;;;;;;5052655;28;20052;-66
2022/12/03 01:47:06;;;;;;;39.13;27.52;;;;;;;;;;5054045;28;20044;-66
2022/12/03 01:49:40;;;;;;;35.10;26.60;;;;;;;;;;5052482;28;20067;-66
2022/12/03 01:52:08;;;;;;;39.08;26.70;;;;;;;;;;5055330;28;20469;-66
2022/12/03 01:54:36;;;;;;;33.22;26.70;;;;;;;;;;5070072;28;20031;-66
2022/12/03 01:57:01;;;;;;;42.15;28.65;;;;;;;;;;5068309;28;20013;-67
2022/12/03 01:59:31;;;;;;;33.08;25.20;;;;;;;;;;5047921;28;20079;-66
2022/12/03 02:01:57;;;;;;;37.75;27.27;;;;;;;;;;5052886;28;20024;-67
2022/12/03 02:04:22;;;;;;;36.72;25.10;;;;;;;;;;5037590;28;20021;-66
2022/12/03 02:06:47;;;;;;;38.85;26.63;;;;;;;;;;5053070;28;20079;-66
2022/12/03 02:09:13;;;;;;;35.70;26.05;;;;;;;;;;5053371;28;20393;-66
2022/12/03 02:11:45;;;;;;;33.25;25.10;;;;;;;;;;5061405;28;20025;-66
2022/12/03 02:14:16;;;;;;;37.72;25.65;;;;;;;;;;5052771;28;20020;-66
2022/12/03 02:16:41;;;;;;;35.88;25.33;;;;;;;;;;5048617;28;20387;-66
2022/12/03 02:19:26;;;;;;;34.70;25.38;;;;;;;;;;5040381;28;20028;-66
2022/12/03 02:22:06;;;;;;;34.28;23.55;;;;;;;;;;5041733;28;20025;-66
2022/12/03 02:24:47;;;;;;;31.77;23.58;;;;;;;;;;5042869;28;20017;-66
2022/12/03 02:27:13;;;;;;;32.17;24.50;;;;;;;;;;5058899;28;20089;-66
2022/12/03 02:29:38;;;;;;;31.67;23.92;;;;;;;;;;5043775;28;20092;-66
2022/12/03 02:32:03;;;;;;;32.45;24.17;;;;;;;;;;5033361;28;20025;-66
2022/12/03 02:34:42;;;;;;;31.67;24.02;;;;;;;;;;5033332;28;20026;-66
2022/12/03 02:37:12;;;;;;;29.95;22.48;;;;;;;;;;5034767;28;20025;-66
2022/12/03 02:39:40;;;;;;;34.35;25.67;;;;;;;;;;5045776;28;20029;-66
2022/12/03 02:44:50;;;;;;;32.08;23.63;;;;;;;;;;5035348;28;20557;-66
2022/12/03 02:47:15;;;;;;;33.33;25.45;;;;;;;;;;5035721;28;20056;-66
2022/12/03 02:49:40;;;;;;;37.17;25.02;;;;;;;;;;5040362;28;20040;-66
2022/12/03 02:52:06;;;;;;;36.47;25.55;;;;;;;;;;5035216;28;20410;-66
2022/12/03 02:54:31;;;;;;;33.28;23.45;;;;;;;;;;5037602;28;20028;-66
2022/12/03 02:56:56;;;;;;;33.35;24.98;;;;;;;;;;5035219;28;20021;-66
2022/12/03 02:59:21;;;;;;;34.10;22.75;;;;;;;;;;5039829;28;20024;-66
2022/12/03 03:01:47;;;;;;;32.25;25.25;;;;;;;;;;5057559;28;20026;-66
2022/12/03 03:04:12;;;;;;;31.65;22.63;;;;;;;;;;5049299;28;20028;-66
2022/12/03 03:06:37;;;;;;;33.90;25.83;;;;;;;;;;5032638;28;20125;-66
2022/12/03 03:09:03;;;;;;;32.97;23.48;;;;;;;;;;5033100;28;20029;-66
2022/12/03 03:11:28;;;;;;;33.50;24.40;;;;;;;;;;5032363;28;20556;-66
2022/12/03 03:13:54;;;;;;;36.67;26.42;;;;;;;;;;5043809;28;20459;-66
2022/12/03 03:16:19;;;;;;;33.30;24.08;;;;;;;;;;5047633;28;20017;-66
2022/12/03 03:18:44;;;;;;;32.13;23.67;;;;;;;;;;5034759;28;20032;-66
2022/12/03 03:21:11;;;;;;;30.73;22.85;;;;;;;;;;5033069;28;20103;-66
2022/12/03 03:23:36;;;;;;;34.05;23.33;;;;;;;;;;5033060;28;20021;-66
2022/12/03 03:26:04;;;;;;;33.38;24.98;;;;;;;;;;5034497;28;20420;-66
2022/12/03 03:28:29;;;;;;;32.65;21.95;;;;;;;;;;5044339;28;20040;-66
2022/12/03 03:30:55;;;;;;;33.58;23.88;;;;;;;;;;5049075;28;20057;-66
2022/12/03 03:33:20;;;;;;;31.67;23.90;;;;;;;;;;5033083;28;20491;-66
2022/12/03 03:35:47;;;;;;;30.38;22.00;;;;;;;;;;5036265;28;20027;-66
2022/12/03 03:38:12;;;;;;;33.28;23.63;;;;;;;;;;5038366;28;20033;-67
2022/12/03 03:40:37;;;;;;;33.58;23.13;;;;;;;;;;5051328;28;20021;-66
2022/12/03 03:43:03;;;;;;;28.63;21.60;;;;;;;;;;5051310;28;20056;-66
2022/12/03 03:45:28;;;;;;;29.73;22.77;;;;;;;;;;5050219;28;20029;-67
2022/12/03 03:47:55;;;;;;;32.22;22.60;;;;;;;;;;5054555;28;20076;-66
2022/12/03 03:50:20;;;;;;;31.15;22.05;;;;;;;;;;5059217;28;20043;-66
2022/12/03 03:52:45;;;;;;;31.13;22.58;;;;;;;;;;5047238;28;20479;-66
2022/12/03 03:55:11;;;;;;;29.60;22.30;;;;;;;;;;5049857;28;20025;-66
2022/12/03 03:57:37;;;;;;;29.73;21.98;;;;;;;;;;5048091;28;20057;-66
2022/12/03 04:00:03;;;;;;;31.00;21.33;;;;;;;;;;5049199;28;20528;-66
2022/12/03 04:02:30;;;;;;;35.83;24.45;;;;;;;;;;5059797;28;20020;-66
2022/12/03 04:04:56;;;;;;;28.70;20.75;;;;;;;;;;5032356;28;20032;-66
2022/12/03 04:07:21;;;;;;;31.27;22.38;;;;;;;;;;5032094;28;20018;-66
2022/12/03 04:09:46;;;;;;;29.90;21.80;;;;;;;;;;5042089;28;20047;-66
2022/12/03 04:14:56;;;;;;;33.78;21.73;;;;;;;;;;5028941;28;20400;-66
2022/12/03 04:17:21;;;;;;;29.58;21.88;;;;;;;;;;5045062;28;20022;-66
2022/12/03 04:19:46;;;;;;;32.75;23.33;;;;;;;;;;5032591;28;20026;-66
2022/12/03 04:28:47;;;;;;;29.43;21.17;;;;;;;;;;5053164;28;20142;-66
2022/12/03 04:30:24;;;;;;;30.23;21.90;;;;;;;;;;5055471;28;20047;-66
2022/12/03 04:35:43;;;;;;;31.73;23.30;;;;;;;;;;5040139;28;20036;-66
2022/12/03 04:38:12;;;;;;;33.67;24.00;;;;;;;;;;5056556;28;20556;-66
2022/12/03 04:43:21;;;;;;;33.40;23.83;;;;;;;;;;5055780;28;20575;-66
2022/12/03 04:45:47;;;;;;;27.63;22.63;;;;;;;;;;5054992;28;20104;-66
2022/12/03 04:48:12;;;;;;;30.98;23.50;;;;;;;;;;5055150;28;20096;-66
2022/12/03 04:50:37;;;;;;;35.35;25.10;;;;;;;;;;5054749;28;20016;-66
2022/12/03 04:53:02;;;;;;;33.10;22.92;;;;;;;;;;5051794;28;20063;-66
2022/12/03 04:55:28;;;;;;;33.20;25.02;;;;;;;;;;5052865;28;20024;-66
2022/12/03 04:57:53;;;;;;;36.83;25.90;;;;;;;;;;5051410;28;20032;-66
2022/12/03 05:00:18;;;;;;;32.95;23.92;;;;;;;;;;5053397;28;20099;-66
2022/12/03 05:02:43;;;;;;;37.95;23.65;;;;;;;;;;5064392;28;20021;-66
2022/12/03 05:05:09;;;;;;;33.38;24.13;;;;;;;;;;5054888;28;20036;-66
2022/12/03 05:07:35;;;;;;;33.13;24.25;;;;;;;;;;5053743;28;20021;-66
2022/12/03 05:10:00;;;;;;;31.65;24.98;;;;;;;;;;5053832;28;20020;-66
2022/12/03 05:12:25;;;;;;;34.10;25.77;;;;;;;;;;5052453;28;20092;-66
2022/12/03 05:14:50;;;;;;;33.80;25.30;;;;;;;;;;5054801;28;20101;-66
2022/12/03 05:17:16;;;;;;;36.00;26.73;;;;;;;;;;5047620;28;20032;-66
2022/12/03 05:22:25;;;;;;;34.88;25.70;;;;;;;;;;5048375;28;20039;-66
2022/12/03 05:24:50;;;;;;;35.25;26.40;;;;;;;;;;5042734;28;20021;-66
2022/12/03 05:27:15;;;;;;;38.00;27.13;;;;;;;;;;5047941;28;20020;-66
2022/12/03 05:29:41;;;;;;;32.00;23.95;;;;;;;;;;5042981;28;20152;-66
2022/12/03 05:32:06;;;;;;;34.45;25.42;;;;;;;;;;5048533;28;20017;-66
2022/12/03 05:34:31;;;;;;;36.83;25.50;;;;;;;;;;5042868;28;20060;-65
2022/12/03 05:36:56;;;;;;;35.17;26.60;;;;;;;;;;5048025;28;20447;-65
2022/12/03 05:39:22;;;;;;;37.08;27.38;;;;;;;;;;5042858;28;20391;-66
2022/12/03 05:44:31;;;;;;;38.30;26.10;;;;;;;;;;5036748;28;20554;-66
2022/12/03 05:46:56;;;;;;;35.58;26.38;;;;;;;;;;5039260;28;20124;-66
2022/12/03 05:49:21;;;;;;;35.80;25.58;;;;;;;;;;5034405;28;20049;-66
2022/12/03 05:51:46;;;;;;;36.38;25.77;;;;;;;;;;5035226;28;20034;-66
2022/12/03 05:54:12;;;;;;;35.80;25.13;;;;;;;;;;5042631;28;20013;-66
2022/12/03 05:56:37;;;;;;;36.80;25.80;;;;;;;;;;5047125;28;20452;-66
2022/12/03 05:59:02;;;;;;;36.92;25.08;;;;;;;;;;5043247;28;20047;-66
2022/12/03 06:01:27;;;;;;;37.75;26.77;;;;;;;;;;5057956;28;20091;-66
2022/12/03 06:03:52;;;;;;;34.50;24.92;;;;;;;;;;5044748;28;20057;-66
2022/12/03 06:06:18;;;;;;;37.80;27.33;;;;;;;;;;5046505;28;20024;-66
2022/12/03 06:08:43;;;;;;;34.42;24.45;;;;;;;;;;5036368;28;20029;-66
2022/12/03 06:11:08;;;;;;;32.90;24.13;;;;;;;;;;5034586;28;20018;-66
2022/12/03 06:13:33;;;;;;;37.58;25.17;;;;;;;;;;5035248;28;20022;-66
2022/12/03 06:15:58;;;;;;;34.75;25.40;;;;;;;;;;5035138;28;20129;-66
2022/12/03 06:18:24;;;;;;;39.45;26.83;;;;;;;;;;5053433;28;20467;-66
2022/12/03 06:20:49;;;;;;;38.92;25.90;;;;;;;;;;5049845;28;20376;-66
2022/12/03 06:23:14;;;;;;;34.53;24.73;;;;;;;;;;5036789;28;20097;-66
2022/12/03 06:25:39;;;;;;;35.90;24.90;;;;;;;;;;5034768;28;20014;-66
2022/12/03 06:28:06;;;;;;;35.38;24.77;;;;;;;;;;5052020;28;20070;-66
2022/12/03 06:30:33;;;;;;;33.22;23.20;;;;;;;;;;5052359;28;20017;-66
2022/12/03 06:32:58;;;;;;;35.22;25.00;;;;;;;;;;5051901;28;20365;-66
2022/12/03 06:35:23;;;;;;;30.65;23.42;;;;;;;;;;5051606;28;20028;-66
2022/12/03 06:37:48;;;;;;;30.48;24.98;;;;;;;;;;5041881;28;20017;-66
2022/12/03 06:40:15;;;;;;;31.13;23.38;;;;;;;;;;5040818;28;20495;-67
2022/12/03 06:42:40;;;;;;;32.40;23.65;;;;;;;;;;5042985;28;20032;-67
2022/12/03 06:45:06;;;;;;;34.10;24.30;;;;;;;;;;5041196;28;20096;-66
2022/12/03 06:47:31;;;;;;;33.92;25.60;;;;;;;;;;5043765;28;20414;-66
2022/12/03 06:49:56;;;;;;;32.72;25.05;;;;;;;;;;5041196;28;20013;-66
2022/12/03 06:52:21;;;;;;;36.17;23.15;;;;;;;;;;5045911;28;20055;-66
2022/12/03 06:54:47;;;;;;;37.78;25.05;;;;;;;;;;5046816;28;20083;-67
2022/12/03 06:57:12;;;;;;;36.45;24.05;;;;;;;;;;5036922;28;20418;-67
2022/12/03 06:59:37;;;;;;;32.55;22.80;;;;;;;;;;5040787;28;20025;-67
2022/12/03 07:02:03;;;;;;;33.00;23.17;;;;;;;;;;5056350;28;20052;-65
2022/12/03 07:04:28;;;;;;;33.35;23.65;;;;;;;;;;5058832;28;20021;-65
2022/12/03 07:06:54;;;;;;;29.77;23.27;;;;;;;;;;5059261;28;20052;-67
2022/12/03 07:09:19;;;;;;;33.00;23.33;;;;;;;;;;5034178;28;20029;-66
2022/12/03 07:11:44;;;;;;;33.13;22.98;;;;;;;;;;5033491;28;20064;-67
2022/12/03 07:14:12;;;;;;;33.72;23.35;;;;;;;;;;5034164;28;20021;-66
2022/12/03 07:16:38;;;;;;;33.25;21.98;;;;;;;;;;5045772;28;20398;-66
2022/12/03 07:19:04;;;;;;;35.78;22.08;;;;;;;;;;5031540;28;20026;-66
2022/12/03 07:21:29;;;;;;;28.77;22.17;;;;;;;;;;5037752;28;20068;-67
2022/12/03 07:23:54;;;;;;;36.40;23.13;;;;;;;;;;5045355;28;20431;-67
2022/12/03 07:26:19;;;;;;;32.85;23.75;;;;;;;;;;5042751;28;20474;-67
2022/12/03 07:28:47;;;;;;;36.30;23.98;;;;;;;;;;5043245;28;20025;-66
2022/12/03 07:31:12;;;;;;;37.42;23.38;;;;;;;;;;5036788;28;20483;-66
2022/12/03 07:33:37;;;;;;;37.58;23.63;;;;;;;;;;5041366;28;20017;-67
2022/12/03 07:36:03;;;;;;;40.95;25.73;;;;;;;;;;5047023;28;20456;-67
2022/12/03 07:38:28;;;;;;;35.28;24.38;;;;;;;;;;5044423;28;20025;-66
2022/12/03 07:40:53;;;;;;;31.42;23.30;;;;;;;;;;5040113;28;20105;-66
2022/12/03 07:43:18;;;;;;;33.20;23.52;;;;;;;;;;5045554;28;20407;-67
2022/12/03 07:45:43;;;;;;;32.58;24.83;;;;;;;;;;5046131;28;20395;-67
2022/12/03 07:48:09;;;;;;;42.70;25.85;;;;;;;;;;5046220;28;20012;-70
2022/12/03 07:50:34;;;;;;;36.38;24.52;;;;;;;;;;5041548;28;20435;-72
2022/12/03 07:52:59;;;;;;;37.33;23.85;;;;;;;;;;5046116;28;20047;-66
2022/12/03 07:55:24;;;;;;;34.78;24.52;;;;;;;;;;5041675;28;20093;-66
2022/12/03 07:57:50;;;;;;;36.42;23.40;;;;;;;;;;5043651;28;20099;-66
2022/12/03 08:00:15;;;;;;;34.25;22.30;;;;;;;;;;5041413;28;20021;-66
2022/12/03 08:02:40;;;;;;;36.33;24.45;;;;;;;;;;5063786;28;20037;-66
2022/12/03 08:05:06;;;;;;;32.28;22.08;;;;;;;;;;5051888;28;20108;-66
2022/12/03 08:07:31;;;;;;;33.53;21.88;;;;;;;;;;5032821;28;20033;-66
2022/12/03 08:09:57;;;;;;;30.60;21.63;;;;;;;;;;5032537;28;20025;-67
2022/12/03 08:12:44;;;;;;;31.42;20.65;;;;;;;;;;5032933;28;20377;-66
2022/12/03 08:15:11;;;;;;;33.08;21.42;;;;;;;;;;5033319;28;20033;-66
2022/12/03 08:17:38;;;;;;;34.45;21.73;;;;;;;;;;5046057;28;20021;-66
2022/12/03 08:20:14;;;;;;;29.23;20.33;;;;;;;;;;5039702;28;20075;-66
2022/12/03 08:22:40;;;;;;;32.47;20.55;;;;;;;;;;5041384;28;20028;-66
2022/12/03 08:25:09;;;;;;;33.22;19.52;;;;;;;;;;5042959;28;20025;-66
2022/12/03 08:27:34;;;;;;;26.55;18.20;;;;;;;;;;5039213;28;20021;-67
2022/12/03 08:30:02;;;;;;;28.60;18.33;;;;;;;;;;5042836;28;20029;-66
2022/12/03 08:32:27;;;;;;;30.58;19.85;;;;;;;;;;5039058;28;20017;-67
2022/12/03 08:34:52;;;;;;;29.75;19.23;;;;;;;;;;5041810;28;20036;-66
2022/12/03 08:37:18;;;;;;;29.45;19.95;;;;;;;;;;5040140;28;20028;-67
2022/12/03 08:39:45;;;;;;;32.05;20.52;;;;;;;;;;5049694;28;20025;-66
2022/12/03 08:45:21;;;;;;;29.15;18.10;;;;;;;;;;5050893;28;20052;-66
2022/12/03 08:47:47;;;;;;;34.72;20.65;;;;;;;;;;5045737;28;20021;-67
2022/12/03 08:50:24;;;;;;;30.88;19.02;;;;;;;;;;5050731;28;20104;-66
2022/12/03 08:52:49;;;;;;;26.10;18.33;;;;;;;;;;5042353;28;20502;-66
2022/12/03 08:55:30;;;;;;;28.48;17.58;;;;;;;;;;5043918;28;20013;-66
2022/12/03 08:57:56;;;;;;;32.90;19.35;;;;;;;;;;5044363;28;20438;-66
2022/12/03 09:00:22;;;;;;;31.20;19.10;;;;;;;;;;5049386;28;20024;-66
2022/12/03 09:02:57;;;;;;;28.30;18.77;;;;;;;;;;5064774;28;20017;-66
2022/12/03 09:05:26;;;;;;;28.73;17.98;;;;;;;;;;5036748;28;20109;-66
2022/12/03 09:07:51;;;;;;;33.72;19.00;;;;;;;;;;5031552;28;20076;-66
2022/12/03 09:10:16;;;;;;;36.00;19.38;;;;;;;;;;5037497;28;20516;-66
2022/12/03 09:12:41;;;;;;;30.65;16.58;;;;;;;;;;5038371;28;20036;-66
2022/12/03 09:15:07;;;;;;;32.42;20.20;;;;;;;;;;5049594;28;20021;-66
2022/12/03 09:17:32;;;;;;;32.08;18.73;;;;;;;;;;5054422;28;20024;-66
2022/12/03 09:19:57;;;;;;;31.13;18.98;;;;;;;;;;5046809;28;20045;-65
2022/12/03 09:22:23;;;;;;;29.80;19.27;;;;;;;;;;5040110;28;21173;-68
2022/12/03 09:24:48;;;;;;;31.48;18.80;;;;;;;;;;5040582;28;20380;-66
2022/12/03 09:27:13;;;;;;;26.65;17.63;;;;;;;;;;5054514;28;20069;-66
2022/12/03 09:29:38;;;;;;;30.88;20.10;;;;;;;;;;5035640;28;20371;-66
2022/12/03 09:32:04;;;;;;;33.97;19.15;;;;;;;;;;5033894;28;20025;-66
2022/12/03 09:34:29;;;;;;;34.45;20.45;;;;;;;;;;5047383;28;20017;-66
2022/12/03 09:36:54;;;;;;;34.83;20.20;;;;;;;;;;5040634;28;20036;-66
2022/12/03 09:39:20;;;;;;;37.75;20.33;;;;;;;;;;5041923;28;20053;-66
2022/12/03 09:41:45;;;;;;;26.23;18.40;;;;;;;;;;5036507;28;20087;-66
2022/12/03 09:44:11;;;;;;;33.63;18.85;;;;;;;;;;5043418;28;20017;-66
2022/12/03 09:46:37;;;;;;;26.70;18.38;;;;;;;;;;5035124;28;20037;-66
2022/12/03 09:49:03;;;;;;;28.50;18.85;;;;;;;;;;5052834;28;20501;-66
2022/12/03 09:51:30;;;;;;;40.30;18.90;;;;;;;;;;5053925;28;20087;-66
2022/12/03 09:53:57;;;;;;;30.75;18.45;;;;;;;;;;5054054;28;20498;-66
2022/12/03 09:56:22;;;;;;;34.88;18.63;;;;;;;;;;5053623;28;20066;-66
2022/12/03 09:58:48;;;;;;;25.88;17.35;;;;;;;;;;5051865;28;20108;-67
2022/12/03 10:01:14;;;;;;;29.77;18.05;;;;;;;;;;5036322;28;20108;-67
2022/12/03 10:03:42;;;;;;;27.77;17.85;;;;;;;;;;5036710;28;20036;-68
2022/12/03 10:06:09;;;;;;;30.30;18.17;;;;;;;;;;5037942;28;20368;-67
2022/12/03 10:08:34;;;;;;;29.42;18.63;;;;;;;;;;5041225;28;20013;-70
2022/12/03 10:10:59;;;;;;;29.55;18.40;;;;;;;;;;5042764;28;20437;-69
2022/12/03 10:13:27;;;;;;;31.48;18.95;;;;;;;;;;5037675;28;20018;-66
2022/12/03 10:15:54;;;;;;;28.15;18.42;;;;;;;;;;5042695;28;20063;-66
2022/12/03 10:18:24;;;;;;;35.45;18.65;;;;;;;;;;5040662;28;20023;-66
2022/12/03 10:20:50;;;;;;;31.63;18.67;;;;;;;;;;5042651;28;20029;-67
2022/12/03 10:23:34;;;;;;;29.10;17.52;;;;;;;;;;5047333;28;20047;-68
2022/12/03 10:26:02;;;;;;;29.77;17.20;;;;;;;;;;5047357;28;20035;-68
2022/12/03 10:28:30;;;;;;;29.92;18.52;;;;;;;;;;5042734;28;20021;-66
2022/12/03 10:30:55;;;;;;;30.90;18.33;;;;;;;;;;5035585;28;20041;-65
2022/12/03 10:33:27;;;;;;;31.20;18.42;;;;;;;;;;5033941;28;20414;-66
2022/12/03 10:35:52;;;;;;;33.42;17.30;;;;;;;;;;5037474;28;20013;-66
2022/12/03 10:38:18;;;;;;;24.35;16.70;;;;;;;;;;5044570;28;20035;-66
2022/12/03 10:40:43;;;;;;;28.33;17.80;;;;;;;;;;5048048;28;20044;-66
2022/12/03 10:43:11;;;;;;;29.27;18.30;;;;;;;;;;5033327;28;20520;-66
2022/12/03 10:45:37;;;;;;;28.30;15.90;;;;;;;;;;5049908;28;20479;-66
2022/12/03 10:48:05;;;;;;;30.67;17.63;;;;;;;;;;5038905;28;20030;-66
2022/12/03 10:50:31;;;;;;;25.83;16.85;;;;;;;;;;5037348;28;20020;-66
2022/12/03 10:52:56;;;;;;;26.50;17.67;;;;;;;;;;5034713;28;20025;-66
2022/12/03 10:55:22;;;;;;;24.55;16.40;;;;;;;;;;5036423;28;20017;-67
2022/12/03 10:57:47;;;;;;;30.98;19.02;;;;;;;;;;5036109;28;20092;-67
2022/12/03 11:00:19;;;;;;;25.52;16.98;;;;;;;;;;5024668;28;20040;-67
2022/12/03 11:02:45;;;;;;;25.88;17.13;;;;;;;;;;5045020;28;20037;-67
2022/12/03 11:05:18;;;;;;;24.63;16.27;;;;;;;;;;5039786;28;20421;-67
2022/12/03 11:07:44;;;;;;;27.33;18.60;;;;;;;;;;5035272;28;20028;-67
2022/12/03 11:10:13;;;;;;;30.50;18.08;;;;;;;;;;5011282;28;20021;-67
2022/12/03 11:12:38;;;;;;;35.20;16.67;;;;;;;;;;5033928;28;20028;-67
2022/12/03 11:15:07;;;;;;;29.92;17.10;;;;;;;;;;5034835;28;20535;-66
2022/12/03 11:17:49;;;;;;;24.90;16.70;;;;;;;;;;5046806;28;20104;-67
2022/12/03 11:20:23;;;;;;;28.05;17.30;;;;;;;;;;5034480;28;20056;-67
2022/12/03 11:22:52;;;;;;;29.02;18.27;;;;;;;;;;5035380;28;20147;-67
2022/12/03 11:25:23;;;;;;;25.58;16.02;;;;;;;;;;5034322;28;20442;-67
2022/12/03 11:28:07;;;;;;;22.75;16.45;;;;;;;;;;5019897;28;20017;-66
2022/12/03 11:30:47;;;;;;;24.73;16.60;;;;;;;;;;5050753;28;20491;-67
2022/12/03 11:33:25;;;;;;;28.10;16.23;;;;;;;;;;5034045;28;20287;-67
2022/12/03 11:36:03;;;;;;;28.30;17.67;;;;;;;;;;5035246;28;20353;-67
2022/12/03 11:38:39;;;;;;;24.90;16.48;;;;;;;;;;5044838;28;20099;-67
2022/12/03 11:41:11;;;;;;;23.10;15.60;;;;;;;;;;5043021;28;20029;-67
2022/12/03 11:44:00;;;;;;;23.65;14.52;;;;;;;;;;5044343;28;20024;-67
2022/12/03 11:46:37;;;;;;;25.42;15.63;;;;;;;;;;5035174;28;20384;-66
2022/12/03 11:49:16;;;;;;;27.88;17.00;;;;;;;;;;5034900;28;20029;-67
2022/12/03 11:51:42;;;;;;;24.17;15.73;;;;;;;;;;5045888;28;20112;-66
2022/12/03 11:54:13;;;;;;;22.80;14.90;;;;;;;;;;5049778;28;20100;-66
2022/12/03 11:56:42;;;;;;;22.13;14.80;;;;;;;;;;5038444;28;20469;-67
2022/12/03 11:59:11;;;;;;;27.63;16.58;;;;;;;;;;5038284;28;20024;-67
2022/12/03 12:01:38;;;;;;;24.38;17.13;;;;;;;;;;5056812;28;20012;-66
2022/12/03 12:04:03;;;;;;;25.80;16.13;;;;;;;;;;5038329;28;20021;-67
2022/12/03 12:06:38;;;;;;;23.10;15.63;;;;;;;;;;5032541;28;20069;-66
2022/12/03 12:09:03;;;;;;;21.10;15.13;;;;;;;;;;5039206;28;20081;-67
2022/12/03 12:11:29;;;;;;;23.08;15.15;;;;;;;;;;5060495;28;20100;-66
2022/12/03 12:13:56;;;;;;;25.45;16.10;;;;;;;;;;5050294;28;20560;-67
2022/12/03 12:16:54;;;;;;;22.08;15.07;;;;;;;;;;5051046;28;20019;-66
2022/12/03 12:19:30;;;;;;;21.60;15.32;;;;;;;;;;5030839;28;20038;-67
2022/12/03 12:22:11;;;;;;;21.63;14.70;;;;;;;;;;5032547;28;20380;-68
2022/12/03 12:24:38;;;;;;;21.98;14.18;;;;;;;;;;5050690;28;20028;-67
2022/12/03 12:27:06;;;;;;;21.40;14.20;;;;;;;;;;5051689;28;20033;-67
2022/12/03 12:29:31;;;;;;;19.98;15.13;;;;;;;;;;5052121;28;20017;-67
2022/12/03 12:31:58;;;;;;;22.42;14.07;;;;;;;;;;5051915;28;20120;-67
2022/12/03 12:34:24;;;;;;;24.42;14.63;;;;;;;;;;5034372;28;20406;-67
2022/12/03 12:36:49;;;;;;;19.58;14.77;;;;;;;;;;5044280;28;20017;-67
2022/12/03 12:39:15;;;;;;;22.90;14.52;;;;;;;;;;5037924;28;20455;-67
2022/12/03 12:41:40;;;;;;;18.92;13.43;;;;;;;;;;5050532;28;20017;-67
2022/12/03 12:44:09;;;;;;;22.88;15.55;;;;;;;;;;5049121;28;20013;-67
2022/12/03 12:46:35;;;;;;;22.90;13.50;;;;;;;;;;5054099;28;20028;-67
2022/12/03 12:49:00;;;;;;;22.63;13.50;;;;;;;;;;5052039;28;20017;-67
2022/12/03 12:51:26;;;;;;;20.80;13.68;;;;;;;;;;5055557;28;20491;-66
2022/12/03 12:53:52;;;;;;;19.67;13.85;;;;;;;;;;5051916;28;20016;-67
2022/12/03 12:56:17;;;;;;;20.70;14.18;;;;;;;;;;5052844;28;20024;-66
2022/12/03 12:58:42;;;;;;;20.13;13.77;;;;;;;;;;5051931;28;20021;-66
2022/12/03 13:01:15;;;;;;;27.02;14.75;;;;;;;;;;5059448;28;20270;-67
2022/12/03 13:03:40;;;;;;;20.50;14.48;;;;;;;;;;5060129;28;20025;-67
2022/12/03 13:06:13;;;;;;;19.23;13.68;;;;;;;;;;5051168;28;20040;-67
2022/12/03 13:08:39;;;;;;;20.80;13.90;;;;;;;;;;5055261;28;20033;-67
2022/12/03 13:11:05;;;;;;;24.55;14.93;;;;;;;;;;5055510;28;20025;-67
2022/12/03 13:13:30;;;;;;;22.65;13.93;;;;;;;;;;5048012;28;20044;-66
2022/12/03 13:16:05;;;;;;;18.80;13.73;;;;;;;;;;5055340;28;20089;-66
2022/12/03 13:18:46;;;;;;;27.10;15.70;;;;;;;;;;5054447;28;20275;-67
2022/12/03 13:21:14;;;;;;;19.65;14.25;;;;;;;;;;5055040;28;20076;-67
2022/12/03 13:23:39;;;;;;;23.15;14.73;;;;;;;;;;5050188;28;20538;-67
2022/12/03 13:26:13;;;;;;;25.80;15.05;;;;;;;;;;5036968;28;20100;-67
2022/12/03 13:28:39;;;;;;;21.23;14.07;;;;;;;;;;5039866;28;20040;-67
2022/12/03 13:31:20;;;;;;;28.88;16.25;;;;;;;;;;5033258;28;20104;-66
2022/12/03 13:33:45;;;;;;;22.33;15.30;;;;;;;;;;5039926;28;20025;-67
2022/12/03 13:36:13;;;;;;;20.67;14.73;;;;;;;;;;5032121;28;20027;-69
2022/12/03 13:38:38;;;;;;;27.55;15.60;;;;;;;;;;5039402;28;20029;-66
2022/12/03 13:41:03;;;;;;;21.98;15.05;;;;;;;;;;5041270;28;20024;-66
2022/12/03 13:43:32;;;;;;;25.63;16.60;;;;;;;;;;5039067;28;20032;-65
2022/12/03 13:45:58;;;;;;;29.98;16.10;;;;;;;;;;5039355;28;20025;-66
2022/12/03 13:48:30;;;;;;;24.70;16.13;;;;;;;;;;5036865;28;20027;-65
2022/12/03 13:50:56;;;;;;;23.35;15.43;;;;;;;;;;5036194;28;20083;-64
2022/12/03 13:53:40;;;;;;;24.33;14.68;;;;;;;;;;5034971;28;20017;-65
2022/12/03 13:56:05;;;;;;;27.15;15.30;;;;;;;;;;5034120;28;20118;-64
2022/12/03 13:58:30;;;;;;;24.98;15.75;;;;;;;;;;5028054;28;20124;-66
2022/12/03 14:00:55;;;;;;;23.80;15.77;;;;;;;;;;5041417;28;20099;-68
2022/12/03 14:03:22;;;;;;;34.92;16.73;;;;;;;;;;5052237;28;20029;-65
2022/12/03 14:05:47;;;;;;;24.80;16.58;;;;;;;;;;5064069;28;20032;-70
2022/12/03 14:08:12;;;;;;;23.40;16.00;;;;;;;;;;5053025;28;20021;-66
2022/12/03 14:10:37;;;;;;;24.70;16.25;;;;;;;;;;5050713;28;20025;-67
2022/12/03 14:13:03;;;;;;;26.02;16.55;;;;;;;;;;5031443;28;20029;-67
2022/12/03 14:15:28;;;;;;;24.60;15.63;;;;;;;;;;5023035;28;20025;-67
2022/12/03 14:17:53;;;;;;;22.77;16.08;;;;;;;;;;5037361;28;20033;-67
2022/12/03 14:20:18;;;;;;;22.50;16.48;;;;;;;;;;5029231;28;20021;-67
2022/12/03 14:22:44;;;;;;;27.95;17.98;;;;;;;;;;5044109;28;20433;-67
2022/12/03 14:25:09;;;;;;;30.02;18.25;;;;;;;;;;5062185;28;20052;-68
2022/12/03 14:27:34;;;;;;;25.42;17.65;;;;;;;;;;5041276;28;20518;-67
2022/12/03 14:30:00;;;;;;;27.27;16.88;;;;;;;;;;5035559;28;20067;-71
2022/12/03 14:32:25;;;;;;;24.08;16.13;;;;;;;;;;5036978;28;20033;-65
2022/12/03 14:34:50;;;;;;;29.98;18.55;;;;;;;;;;5045956;28;20481;-67
2022/12/03 14:37:16;;;;;;;27.40;17.95;;;;;;;;;;5035464;28;20013;-67
2022/12/03 14:39:41;;;;;;;28.95;18.75;;;;;;;;;;5039004;28;20043;-67